sensor_id;sensor_type;location;lat;lon;timestamp;pressure;altitude;pressure_sealevel;temperature;humidity
42771;BME280;28426;42.872;25.314;2023-03-03T00:01:44;97175.16;;;1.98;100.00
42771;BME280;28426;42.872;25.314;2023-03-03T00:04:14;97173.94;;;2.02;100.00
42771;BME280;28426;42.872;25.314;2023-03-03T00:06:45;97171.25;;;2.13;100.00
42771;BME280;28426;42.872;25.314;2023-03-03T00:09:18;97165.72;;;2.16;100.00
42771;BME280;28426;42.872;25.314;2023-03-03T00:11:53;97158.00;;;2.25;100.00
42771;BME280;28426;42.872;25.314;2023-03-03T00:14:28;97151.06;;;2.24;100.00
42771;BME280;28426;42.872;25.314;2023-03-03T00:17:00;97149.41;;;2.22;100.00
42771;BME280;28426;42.872;25.314;2023-03-03T00:19:37;97153.81;;;2.12;100.00
42771;BME280;28426;42.872;25.314;2023-03-03T00:22:16;97149.81;;;1.96;100.00
42771;BME280;28426;42.872;25.314;2023-03-03T00:24:54;97155.63;;;1.90;100.00
42771;BME280;28426;42.872;25.314;2023-03-03T00:27:28;97142.06;;;1.95;100.00
42771;BME280;28426;42.872;25.314;2023-03-03T00:30:00;97139.09;;;1.88;100.00
42771;BME280;28426;42.872;25.314;2023-03-03T00:32:37;97141.69;;;1.78;100.00
42771;BME280;28426;42.872;25.314;2023-03-03T00:35:22;97135.38;;;1.69;100.00
42771;BME280;28426;42.872;25.314;2023-03-03T00:37:55;97123.97;;;1.80;100.00
42771;BME280;28426;42.872;25.314;2023-03-03T00:40:32;97128.47;;;1.90;100.00
42771;BME280;28426;42.872;25.314;2023-03-03T00:43:14;97127.81;;;1.98;100.00
42771;BME280;28426;42.872;25.314;2023-03-03T00:45:47;97125.16;;;1.98;100.00
42771;BME280;28426;42.872;25.314;2023-03-03T00:48:21;97120.19;;;1.94;100.00
42771;BME280;28426;42.872;25.314;2023-03-03T00:50:53;97115.69;;;1.85;100.00
42771;BME280;28426;42.872;25.314;2023-03-03T00:53:26;97105.59;;;1.69;100.00
42771;BME280;28426;42.872;25.314;2023-03-03T00:55:59;97108.41;;;1.67;100.00
42771;BME280;28426;42.872;25.314;2023-03-03T00:58:30;97103.16;;;1.77;100.00
42771;BME280;28426;42.872;25.314;2023-03-03T01:01:01;97103.22;;;1.87;100.00
42771;BME280;28426;42.872;25.314;2023-03-03T01:03:43;97088.59;;;1.94;100.00
42771;BME280;28426;42.872;25.314;2023-03-03T01:06:14;97091.94;;;1.96;100.00
42771;BME280;28426;42.872;25.314;2023-03-03T01:08:45;97081.34;;;1.87;100.00
42771;BME280;28426;42.872;25.314;2023-03-03T01:11:20;97080.72;;;1.73;100.00
42771;BME280;28426;42.872;25.314;2023-03-03T01:13:54;97080.41;;;1.66;100.00
42771;BME280;28426;42.872;25.314;2023-03-03T01:16:26;97076.84;;;1.77;100.00
42771;BME280;28426;42.872;25.314;2023-03-03T01:18:56;97080.66;;;1.85;100.00
42771;BME280;28426;42.872;25.314;2023-03-03T01:21:27;97078.06;;;1.94;100.00
42771;BME280;28426;42.872;25.314;2023-03-03T01:23:58;97077.91;;;1.96;100.00
42771;BME280;28426;42.872;25.314;2023-03-03T01:26:31;97084.44;;;1.92;100.00
42771;BME280;28426;42.872;25.314;2023-03-03T01:29:02;97086.16;;;1.81;100.00
42771;BME280;28426;42.872;25.314;2023-03-03T01:31:32;97089.97;;;1.67;100.00
42771;BME280;28426;42.872;25.314;2023-03-03T01:34:03;97078.81;;;1.75;100.00
42771;BME280;28426;42.872;25.314;2023-03-03T01:36:34;97077.31;;;1.82;100.00
42771;BME280;28426;42.872;25.314;2023-03-03T01:39:04;97073.63;;;1.95;100.00
42771;BME280;28426;42.872;25.314;2023-03-03T01:41:38;97078.50;;;2.00;100.00
42771;BME280;28426;42.872;25.314;2023-03-03T01:44:10;97069.22;;;1.95;100.00
42771;BME280;28426;42.872;25.314;2023-03-03T01:46:51;97070.00;;;1.86;100.00
42771;BME280;28426;42.872;25.314;2023-03-03T01:49:26;97066.75;;;1.73;100.00
42771;BME280;28426;42.872;25.314;2023-03-03T01:52:00;97070.34;;;1.72;100.00
42771;BME280;28426;42.872;25.314;2023-03-03T01:54:37;97066.09;;;1.80;100.00
42771;BME280;28426;42.872;25.314;2023-03-03T01:57:15;97068.72;;;1.80;100.00
42771;BME280;28426;42.872;25.314;2023-03-03T01:59:49;97062.75;;;1.78;100.00
42771;BME280;28426;42.872;25.314;2023-03-03T02:02:22;97066.16;;;1.90;100.00
42771;BME280;28426;42.872;25.314;2023-03-03T02:04:54;97066.16;;;1.90;100.00
42771;BME280;28426;42.872;25.314;2023-03-03T02:07:26;97070.25;;;1.83;100.00
42771;BME280;28426;42.872;25.314;2023-03-03T02:10:03;97067.84;;;1.70;100.00
42771;BME280;28426;42.872;25.314;2023-03-03T02:12:40;97067.34;;;1.55;100.00
42771;BME280;28426;42.872;25.314;2023-03-03T02:15:34;97070.47;;;1.70;100.00
42771;BME280;28426;42.872;25.314;2023-03-03T02:18:07;97069.69;;;1.79;100.00
42771;BME280;28426;42.872;25.314;2023-03-03T02:20:45;97072.09;;;1.92;100.00
42771;BME280;28426;42.872;25.314;2023-03-03T02:23:25;97069.47;;;1.92;100.00
42771;BME280;28426;42.872;25.314;2023-03-03T02:26:15;97066.66;;;1.84;100.00
42771;BME280;28426;42.872;25.314;2023-03-03T02:28:52;97068.78;;;1.69;100.00
42771;BME280;28426;42.872;25.314;2023-03-03T02:31:25;97062.88;;;1.55;100.00
42771;BME280;28426;42.872;25.314;2023-03-03T02:33:56;97063.91;;;1.64;100.00
42771;BME280;28426;42.872;25.314;2023-03-03T02:36:28;97072.97;;;1.72;100.00
42771;BME280;28426;42.872;25.314;2023-03-03T02:39:03;97075.84;;;1.68;100.00
42771;BME280;28426;42.872;25.314;2023-03-03T02:41:41;97074.97;;;1.58;100.00
42771;BME280;28426;42.872;25.314;2023-03-03T02:44:15;97064.94;;;1.73;100.00
42771;BME280;28426;42.872;25.314;2023-03-03T02:46:48;97067.19;;;1.78;100.00
42771;BME280;28426;42.872;25.314;2023-03-03T02:49:23;97074.63;;;1.73;100.00
42771;BME280;28426;42.872;25.314;2023-03-03T02:51:54;97074.44;;;1.64;100.00
42771;BME280;28426;42.872;25.314;2023-03-03T02:54:27;97080.97;;;1.49;100.00
42771;BME280;28426;42.872;25.314;2023-03-03T02:57:04;97073.28;;;1.57;100.00
42771;BME280;28426;42.872;25.314;2023-03-03T02:59:35;97080.28;;;1.68;100.00
42771;BME280;28426;42.872;25.314;2023-03-03T03:02:10;97071.47;;;1.79;100.00
42771;BME280;28426;42.872;25.314;2023-03-03T03:04:41;97067.50;;;1.85;100.00
42771;BME280;28426;42.872;25.314;2023-03-03T03:07:15;97068.72;;;1.80;100.00
42771;BME280;28426;42.872;25.314;2023-03-03T03:09:45;97069.38;;;1.73;100.00
42771;BME280;28426;42.872;25.314;2023-03-03T03:12:19;97074.00;;;1.59;100.00
42771;BME280;28426;42.872;25.314;2023-03-03T03:14:53;97070.66;;;1.57;100.00
42771;BME280;28426;42.872;25.314;2023-03-03T03:17:23;97067.97;;;1.68;100.00
42771;BME280;28426;42.872;25.314;2023-03-03T03:19:54;97070.78;;;1.77;100.00
42771;BME280;28426;42.872;25.314;2023-03-03T03:22:25;97067.63;;;1.83;100.00
42771;BME280;28426;42.872;25.314;2023-03-03T03:24:56;97065.25;;;1.80;100.00
42771;BME280;28426;42.872;25.314;2023-03-03T03:27:30;97056.22;;;1.73;100.00
42771;BME280;28426;42.872;25.314;2023-03-03T03:30:00;97063.19;;;1.62;100.00
42771;BME280;28426;42.872;25.314;2023-03-03T03:32:32;97068.78;;;1.48;100.00
42771;BME280;28426;42.872;25.314;2023-03-03T03:35:03;97064.81;;;1.53;100.00
42771;BME280;28426;42.872;25.314;2023-03-03T03:37:35;97056.16;;;1.63;100.00
42771;BME280;28426;42.872;25.314;2023-03-03T03:40:06;97054.63;;;1.60;100.00
42771;BME280;28426;42.872;25.314;2023-03-03T03:42:41;97065.28;;;1.59;100.00
42771;BME280;28426;42.872;25.314;2023-03-03T03:45:12;97053.00;;;1.69;100.00
42771;BME280;28426;42.872;25.314;2023-03-03T03:47:46;97047.34;;;1.74;100.00
42771;BME280;28426;42.872;25.314;2023-03-03T03:50:17;97051.47;;;1.66;100.00
42771;BME280;28426;42.872;25.314;2023-03-03T03:52:48;97041.16;;;1.53;100.00
42771;BME280;28426;42.872;25.314;2023-03-03T03:55:19;97055.22;;;1.42;100.00
42771;BME280;28426;42.872;25.314;2023-03-03T03:57:53;97041.16;;;1.53;100.00
42771;BME280;28426;42.872;25.314;2023-03-03T04:00:25;97040.50;;;1.61;100.00
42771;BME280;28426;42.872;25.314;2023-03-03T04:02:59;97041.84;;;1.55;100.00
42771;BME280;28426;42.872;25.314;2023-03-03T04:05:30;97036.78;;;1.64;100.00
42771;BME280;28426;42.872;25.314;2023-03-03T04:08:01;97034.19;;;1.74;100.00
42771;BME280;28426;42.872;25.314;2023-03-03T04:10:32;97024.78;;;1.71;100.00
42771;BME280;28426;42.872;25.314;2023-03-03T04:13:07;97020.44;;;1.60;100.00
42771;BME280;28426;42.872;25.314;2023-03-03T04:15:38;97016.31;;;1.46;100.00
42771;BME280;28426;42.872;25.314;2023-03-03T04:18:10;97032.88;;;1.37;100.00
42771;BME280;28426;42.872;25.314;2023-03-03T04:20:41;97023.84;;;1.51;100.00
42771;BME280;28426;42.872;25.314;2023-03-03T04:23:11;97027.34;;;1.61;100.00
42771;BME280;28426;42.872;25.314;2023-03-03T04:25:42;97030.38;;;1.56;100.00
42771;BME280;28426;42.872;25.314;2023-03-03T04:28:16;97028.53;;;1.47;100.00
42771;BME280;28426;42.872;25.314;2023-03-03T04:30:49;97031.31;;;1.55;100.00
42771;BME280;28426;42.872;25.314;2023-03-03T04:33:21;97026.25;;;1.64;100.00
42771;BME280;28426;42.872;25.314;2023-03-03T04:35:53;97037.53;;;1.76;100.00
42771;BME280;28426;42.872;25.314;2023-03-03T04:38:23;97038.00;;;1.81;100.00
42771;BME280;28426;42.872;25.314;2023-03-03T04:40:55;97034.75;;;1.77;100.00
42771;BME280;28426;42.872;25.314;2023-03-03T04:43:32;97031.81;;;1.70;100.00
42771;BME280;28426;42.872;25.314;2023-03-03T04:46:04;97037.44;;;1.56;100.00
42771;BME280;28426;42.872;25.314;2023-03-03T04:48:36;97043.84;;;1.42;100.00
42771;BME280;28426;42.872;25.314;2023-03-03T04:51:08;97042.50;;;1.48;100.00
42771;BME280;28426;42.872;25.314;2023-03-03T04:53:39;97042.69;;;1.56;100.00
42771;BME280;28426;42.872;25.314;2023-03-03T04:56:09;97034.25;;;1.52;100.00
42771;BME280;28426;42.872;25.314;2023-03-03T04:58:43;97048.16;;;1.43;100.00
42771;BME280;28426;42.872;25.314;2023-03-03T05:01:14;97045.47;;;1.33;100.00
42771;BME280;28426;42.872;25.314;2023-03-03T05:03:46;97050.66;;;1.45;100.00
42771;BME280;28426;42.872;25.314;2023-03-03T05:06:17;97043.78;;;1.53;100.00
42771;BME280;28426;42.872;25.314;2023-03-03T05:08:47;97046.66;;;1.50;100.00
42771;BME280;28426;42.872;25.314;2023-03-03T05:11:18;97043.84;;;1.42;100.00
42771;BME280;28426;42.872;25.314;2023-03-03T05:13:52;97043.69;;;1.34;100.00
42771;BME280;28426;42.872;25.314;2023-03-03T05:16:23;97050.38;;;1.48;100.00
42771;BME280;28426;42.872;25.314;2023-03-03T05:18:54;97040.31;;;1.53;100.00
42771;BME280;28426;42.872;25.314;2023-03-03T05:21:25;97045.25;;;1.46;100.00
42771;BME280;28426;42.872;25.314;2023-03-03T05:23:55;97048.66;;;1.37;100.00
42771;BME280;28426;42.872;25.314;2023-03-03T05:26:26;97052.66;;;1.31;100.00
42771;BME280;28426;42.872;25.314;2023-03-03T05:28:59;97043.72;;;1.43;100.00
42771;BME280;28426;42.872;25.314;2023-03-03T05:31:30;97047.63;;;1.49;100.00
42771;BME280;28426;42.872;25.314;2023-03-03T05:34:01;97056.03;;;1.43;100.00
42771;BME280;28426;42.872;25.314;2023-03-03T05:36:32;97058.34;;;1.36;100.00
42771;BME280;28426;42.872;25.314;2023-03-03T05:39:03;97047.13;;;1.34;100.00
42771;BME280;28426;42.872;25.314;2023-03-03T05:41:33;97055.66;;;1.48;100.00
42771;BME280;28426;42.872;25.314;2023-03-03T05:44:07;97059.00;;;1.50;100.00
42771;BME280;28426;42.872;25.314;2023-03-03T05:46:38;97058.41;;;1.46;100.00
42771;BME280;28426;42.872;25.314;2023-03-03T05:49:09;97070.53;;;1.37;100.00
42771;BME280;28426;42.872;25.314;2023-03-03T05:51:40;97068.16;;;1.34;100.00
42771;BME280;28426;42.872;25.314;2023-03-03T05:54:10;97059.94;;;1.49;100.00
42771;BME280;28426;42.872;25.314;2023-03-03T05:56:41;97057.91;;;1.52;100.00
42771;BME280;28426;42.872;25.314;2023-03-03T05:59:14;97048.72;;;1.47;100.00
42771;BME280;28426;42.872;25.314;2023-03-03T06:01:45;97056.03;;;1.43;100.00
42771;BME280;28426;42.872;25.314;2023-03-03T06:04:16;97052.56;;;1.42;100.00
42771;BME280;28426;42.872;25.314;2023-03-03T06:06:47;97037.69;;;1.53;100.00
42771;BME280;28426;42.872;25.314;2023-03-03T06:09:18;97041.28;;;1.52;100.00
42771;BME280;28426;42.872;25.314;2023-03-03T06:11:49;97054.00;;;1.47;100.00
42771;BME280;28426;42.872;25.314;2023-03-03T06:14:22;97050.38;;;1.48;100.00
42771;BME280;28426;42.872;25.314;2023-03-03T06:16:53;97049.34;;;1.60;100.00
42771;BME280;28426;42.872;25.314;2023-03-03T06:19:24;97052.44;;;1.65;100.00
42771;BME280;28426;42.872;25.314;2023-03-03T06:21:55;97044.94;;;1.61;100.00
42771;BME280;28426;42.872;25.314;2023-03-03T06:24:27;97054.56;;;1.50;100.00
42771;BME280;28426;42.872;25.314;2023-03-03T06:26:58;97049.25;;;1.40;100.00
42771;BME280;28426;42.872;25.314;2023-03-03T06:29:31;97044.63;;;1.54;100.00
42771;BME280;28426;42.872;25.314;2023-03-03T06:32:02;97056.03;;;1.64;100.00
42771;BME280;28426;42.872;25.314;2023-03-03T06:34:33;97044.34;;;1.57;100.00
42771;BME280;28426;42.872;25.314;2023-03-03T06:37:04;97052.91;;;1.49;100.00
42771;BME280;28426;42.872;25.314;2023-03-03T06:39:35;97059.03;;;1.38;100.00
42771;BME280;28426;42.872;25.314;2023-03-03T06:42:05;97058.03;;;1.51;100.00
42771;BME280;28426;42.872;25.314;2023-03-03T06:44:38;97054.50;;;1.62;100.00
42771;BME280;28426;42.872;25.314;2023-03-03T06:47:09;97059.63;;;1.63;100.00
42771;BME280;28426;42.872;25.314;2023-03-03T06:49:40;97065.38;;;1.57;100.00
42771;BME280;28426;42.872;25.314;2023-03-03T06:52:12;97057.19;;;1.72;100.00
42771;BME280;28426;42.872;25.314;2023-03-03T06:54:43;97066.66;;;1.84;100.00
42771;BME280;28426;42.872;25.314;2023-03-03T06:57:17;97061.38;;;1.84;100.00
42771;BME280;28426;42.872;25.314;2023-03-03T06:59:54;97063.06;;;1.85;100.00
42771;BME280;28426;42.872;25.314;2023-03-03T07:02:25;97062.00;;;1.98;100.00
42771;BME280;28426;42.872;25.314;2023-03-03T07:04:55;97062.59;;;2.01;100.00
42771;BME280;28426;42.872;25.314;2023-03-03T07:07:26;97062.72;;;2.00;100.00
42771;BME280;28426;42.872;25.314;2023-03-03T07:09:57;97058.25;;;1.90;100.00
42771;BME280;28426;42.872;25.314;2023-03-03T07:12:29;97059.97;;;1.80;100.00
42771;BME280;28426;42.872;25.314;2023-03-03T07:15:12;97064.94;;;1.73;100.00
42771;BME280;28426;42.872;25.314;2023-03-03T07:17:45;97063.31;;;1.82;100.00
42771;BME280;28426;42.872;25.314;2023-03-03T07:20:20;97059.47;;;1.86;100.00
42771;BME280;28426;42.872;25.314;2023-03-03T07:22:51;97055.69;;;1.79;100.00
42771;BME280;28426;42.872;25.314;2023-03-03T07:25:29;97058.31;;;1.79;100.00
42771;BME280;28426;42.872;25.314;2023-03-03T07:28:10;97048.41;;;1.92;100.00
42771;BME280;28426;42.872;25.314;2023-03-03T07:30:46;97050.78;;;1.95;100.00
42771;BME280;28426;42.872;25.314;2023-03-03T07:33:22;97041.50;;;1.91;100.00
42771;BME280;28426;42.872;25.314;2023-03-03T07:35:56;97047.00;;;1.88;100.00
42771;BME280;28426;42.872;25.314;2023-03-03T07:38:33;97037.28;;;1.79;100.00
42771;BME280;28426;42.872;25.314;2023-03-03T07:41:11;97040.50;;;1.92;100.00
42771;BME280;28426;42.872;25.314;2023-03-03T07:43:47;97038.75;;;2.03;100.00
42771;BME280;28426;42.872;25.314;2023-03-03T07:46:29;97028.81;;;2.16;100.00
42771;BME280;28426;42.872;25.314;2023-03-03T07:49:00;97035.94;;;2.26;100.00
42771;BME280;28426;42.872;25.314;2023-03-03T07:51:37;97029.28;;;2.21;100.00
42771;BME280;28426;42.872;25.314;2023-03-03T07:54:20;97031.63;;;2.15;100.00
42771;BME280;28426;42.872;25.314;2023-03-03T07:56:56;97034.47;;;2.02;100.00
42771;BME280;28426;42.872;25.314;2023-03-03T07:59:27;97035.78;;;2.17;100.00
42771;BME280;28426;42.872;25.314;2023-03-03T08:02:01;97031.91;;;2.21;100.00
42771;BME280;28426;42.872;25.314;2023-03-03T08:04:38;97028.69;;;2.18;100.00
42771;BME280;28426;42.872;25.314;2023-03-03T08:07:13;97026.72;;;2.10;100.00
42771;BME280;28426;42.872;25.314;2023-03-03T08:09:47;97017.44;;;2.06;100.00
42771;BME280;28426;42.872;25.314;2023-03-03T08:12:29;97017.47;;;2.16;100.00
42771;BME280;28426;42.872;25.314;2023-03-03T08:15:19;97031.91;;;2.21;100.00
42771;BME280;28426;42.872;25.314;2023-03-03T08:17:54;97019.56;;;2.12;100.00
42771;BME280;28426;42.872;25.314;2023-03-03T08:20:40;97020.78;;;2.08;100.00
42771;BME280;28426;42.872;25.314;2023-03-03T08:23:13;97011.78;;;2.20;100.00
42771;BME280;28426;42.872;25.314;2023-03-03T08:25:45;97013.78;;;2.28;100.00
42771;BME280;28426;42.872;25.314;2023-03-03T08:28:17;97007.78;;;2.26;100.00
42771;BME280;28426;42.872;25.314;2023-03-03T08:30:48;97003.06;;;2.20;100.00
42771;BME280;28426;42.872;25.314;2023-03-03T08:33:34;97003.88;;;2.20;100.00
42771;BME280;28426;42.872;25.314;2023-03-03T08:36:06;97006.69;;;2.29;100.00
42771;BME280;28426;42.872;25.314;2023-03-03T08:38:37;97004.91;;;2.29;100.00
42771;BME280;28426;42.872;25.314;2023-03-03T08:41:08;97000.03;;;2.25;100.00
42771;BME280;28426;42.872;25.314;2023-03-03T08:43:39;97002.50;;;2.16;100.00
42771;BME280;28426;42.872;25.314;2023-03-03T08:46:11;97008.91;;;2.24;100.00
42771;BME280;28426;42.872;25.314;2023-03-03T08:48:45;97002.81;;;2.33;100.00
42771;BME280;28426;42.872;25.314;2023-03-03T08:51:16;96991.72;;;2.29;100.00
42771;BME280;28426;42.872;25.314;2023-03-03T08:53:46;96973.69;;;2.15;100.00
42771;BME280;28426;42.872;25.314;2023-03-03T08:56:17;96996.84;;;2.21;100.00
42771;BME280;28426;42.872;25.314;2023-03-03T08:58:48;96988.84;;;2.32;100.00
42771;BME280;28426;42.872;25.314;2023-03-03T09:01:29;96992.06;;;2.46;100.00
42771;BME280;28426;42.872;25.314;2023-03-03T09:04:02;96985.78;;;2.57;100.00
42771;BME280;28426;42.872;25.314;2023-03-03T09:06:33;96985.69;;;2.68;100.00
42771;BME280;28426;42.872;25.314;2023-03-03T09:09:03;96986.09;;;2.73;100.00
42771;BME280;28426;42.872;25.314;2023-03-03T09:11:34;96978.75;;;2.67;100.00
42771;BME280;28426;42.872;25.314;2023-03-03T09:14:09;96978.88;;;2.56;100.00
42771;BME280;28426;42.872;25.314;2023-03-03T09:16:44;96983.56;;;2.42;100.00
42771;BME280;28426;42.872;25.314;2023-03-03T09:19:26;96985.78;;;2.57;100.00
42771;BME280;28426;42.872;25.314;2023-03-03T09:22:08;96983.03;;;2.68;100.00
42771;BME280;28426;42.872;25.314;2023-03-03T09:24:41;96983.19;;;2.67;100.00
42771;BME280;28426;42.872;25.314;2023-03-03T09:27:17;96975.00;;;2.60;100.00
42771;BME280;28426;42.872;25.314;2023-03-03T09:29:48;96983.19;;;2.77;100.00
42771;BME280;28426;42.872;25.314;2023-03-03T09:32:32;96973.75;;;2.84;100.00
42771;BME280;28426;42.872;25.314;2023-03-03T09:35:32;96977.63;;;2.80;100.00
42771;BME280;28426;42.872;25.314;2023-03-03T09:38:18;96976.66;;;2.71;99.28
42771;BME280;28426;42.872;25.314;2023-03-03T09:41:15;96977.34;;;2.83;100.00
42771;BME280;28426;42.872;25.314;2023-03-03T09:44:05;96974.19;;;2.89;100.00
42771;BME280;28426;42.872;25.314;2023-03-03T09:46:47;96972.78;;;2.85;100.00
42771;BME280;28426;42.872;25.314;2023-03-03T09:49:29;96976.81;;;2.89;100.00
42771;BME280;28426;42.872;25.314;2023-03-03T09:52:20;96974.84;;;3.01;100.00
42771;BME280;28426;42.872;25.314;2023-03-03T09:55:02;96962.34;;;3.03;100.00
42771;BME280;28426;42.872;25.314;2023-03-03T09:57:54;96967.09;;;2.99;98.06
42771;BME280;28426;42.872;25.314;2023-03-03T10:00:47;96966.28;;;2.89;97.62
42771;BME280;28426;42.872;25.314;2023-03-03T10:03:36;96962.94;;;2.97;100.00
42771;BME280;28426;42.872;25.314;2023-03-03T10:06:18;96956.94;;;3.05;99.72
42771;BME280;28426;42.872;25.314;2023-03-03T10:09:07;96962.34;;;3.03;98.12
42771;BME280;28426;42.872;25.314;2023-03-03T10:11:47;96954.84;;;3.08;100.00
42771;BME280;28426;42.872;25.314;2023-03-03T10:17:35;96946.94;;;3.18;98.58
42771;BME280;28426;42.872;25.314;2023-03-03T10:20:30;96941.25;;;3.13;97.04
42771;BME280;28426;42.872;25.314;2023-03-03T10:23:20;96937.09;;;3.00;96.96
42771;BME280;28426;42.872;25.314;2023-03-03T10:26:06;96938.19;;;3.18;100.00
42771;BME280;28426;42.872;25.314;2023-03-03T10:29:02;96941.50;;;3.30;99.99
42771;BME280;28426;42.872;25.314;2023-03-03T10:31:45;96939.91;;;3.47;100.00
42771;BME280;28426;42.872;25.314;2023-03-03T10:34:28;96937.41;;;3.55;98.43
42771;BME280;28426;42.872;25.314;2023-03-03T10:37:06;96934.19;;;3.51;95.63
42771;BME280;28426;42.872;25.314;2023-03-03T10:39:47;96935.06;;;3.42;94.68
42771;BME280;28426;42.872;25.314;2023-03-03T10:42:37;96927.44;;;3.39;98.86
42771;BME280;28426;42.872;25.314;2023-03-03T10:45:30;96923.63;;;3.51;98.50
42771;BME280;28426;42.872;25.314;2023-03-03T10:48:28;96920.72;;;3.55;94.71
42771;BME280;28426;42.872;25.314;2023-03-03T10:51:17;96912.06;;;3.62;99.34
42771;BME280;28426;42.872;25.314;2023-03-03T10:54:02;96903.84;;;3.75;97.43
42771;BME280;28426;42.872;25.314;2023-03-03T10:56:43;96907.16;;;3.77;95.17
42771;BME280;28426;42.872;25.314;2023-03-03T10:59:38;96909.69;;;3.69;93.21
42771;BME280;28426;42.872;25.314;2023-03-03T11:02:18;96905.88;;;3.53;93.96
42771;BME280;28426;42.872;25.314;2023-03-03T11:05:16;96902.06;;;3.66;99.62
42771;BME280;28426;42.872;25.314;2023-03-03T11:07:55;96901.19;;;3.75;99.27
42771;BME280;28426;42.872;25.314;2023-03-03T11:10:39;96894.88;;;3.86;99.08
42771;BME280;28426;42.872;25.314;2023-03-03T11:13:20;96892.78;;;3.90;96.11
42771;BME280;28426;42.872;25.314;2023-03-03T11:16:04;96889.50;;;3.78;92.74
42771;BME280;28426;42.872;25.314;2023-03-03T11:18:58;96881.44;;;3.79;98.22
42771;BME280;28426;42.872;25.314;2023-03-03T11:21:35;96890.13;;;3.90;95.15
42771;BME280;28426;42.872;25.314;2023-03-03T11:24:37;96877.69;;;3.82;93.50
42771;BME280;28426;42.872;25.314;2023-03-03T11:27:25;96882.91;;;3.64;93.97
42771;BME280;28426;42.872;25.314;2023-03-03T11:30:15;96887.31;;;3.73;98.14
42771;BME280;28426;42.872;25.314;2023-03-03T11:32:54;96891.59;;;3.74;95.35
42771;BME280;28426;42.872;25.314;2023-03-03T11:35:35;96896.34;;;3.71;94.10
42771;BME280;28426;42.872;25.314;2023-03-03T11:38:20;96884.78;;;3.53;93.16
42771;BME280;28426;42.872;25.314;2023-03-03T11:40:55;96888.06;;;3.56;100.00
42771;BME280;28426;42.872;25.314;2023-03-03T11:43:29;96887.50;;;3.62;100.00
42771;BME280;28426;42.872;25.314;2023-03-03T11:46:07;96881.25;;;3.63;96.48
42771;BME280;28426;42.872;25.314;2023-03-03T11:48:45;96888.06;;;3.56;94.63
42771;BME280;28426;42.872;25.314;2023-03-03T11:51:24;96887.28;;;3.45;98.30
42771;BME280;28426;42.872;25.314;2023-03-03T11:54:03;96881.16;;;3.55;99.93
42771;BME280;28426;42.872;25.314;2023-03-03T11:56:39;96886.41;;;3.55;96.65
42771;BME280;28426;42.872;25.314;2023-03-03T11:59:38;96889.94;;;3.45;94.54
42771;BME280;28426;42.872;25.314;2023-03-03T12:05:24;96881.25;;;3.35;100.00
42771;BME280;28426;42.872;25.314;2023-03-03T12:08:04;96883.28;;;3.41;97.97
42771;BME280;28426;42.872;25.314;2023-03-03T12:10:42;96884.53;;;3.37;95.34
42771;BME280;28426;42.872;25.314;2023-03-03T12:13:21;96885.13;;;3.31;95.10
42771;BME280;28426;42.872;25.314;2023-03-03T12:16:04;96877.13;;;3.22;96.51
42771;BME280;28426;42.872;25.314;2023-03-03T12:18:48;96882.91;;;3.36;100.00
42771;BME280;28426;42.872;25.314;2023-03-03T12:21:33;96881.91;;;3.37;97.45
42771;BME280;28426;42.872;25.314;2023-03-03T12:24:16;96878.50;;;3.26;95.63
42771;BME280;28426;42.872;25.314;2023-03-03T12:26:53;96879.34;;;3.17;95.39
42771;BME280;28426;42.872;25.314;2023-03-03T12:29:36;96880.41;;;3.24;100.00
42771;BME280;28426;42.872;25.314;2023-03-03T12:32:21;96881.53;;;3.32;99.66
42771;BME280;28426;42.872;25.314;2023-03-03T12:34:59;96888.91;;;3.28;96.10
42771;BME280;28426;42.872;25.314;2023-03-03T12:37:46;96894.06;;;3.20;96.41
42771;BME280;28426;42.872;25.314;2023-03-03T12:40:24;96893.78;;;3.13;96.93
42771;BME280;28426;42.872;25.314;2023-03-03T12:43:12;96888.50;;;3.23;100.00
42771;BME280;28426;42.872;25.314;2023-03-03T12:45:53;96892.06;;;3.32;100.00
42771;BME280;28426;42.872;25.314;2023-03-03T12:48:33;96886.81;;;3.22;96.36
42771;BME280;28426;42.872;25.314;2023-03-03T12:51:13;96890.72;;;3.18;97.94
42771;BME280;28426;42.872;25.314;2023-03-03T12:54:20;96891.78;;;3.35;100.00
42771;BME280;28426;42.872;25.314;2023-03-03T12:57:11;96891.06;;;3.43;100.00
42771;BME280;28426;42.872;25.314;2023-03-03T12:59:53;96882.75;;;3.37;98.15
42771;BME280;28426;42.872;25.314;2023-03-03T13:02:38;96888.06;;;3.27;97.03
42771;BME280;28426;42.872;25.314;2023-03-03T13:05:19;96894.13;;;3.38;100.00
42771;BME280;28426;42.872;25.314;2023-03-03T13:07:58;96896.47;;;3.41;100.00
42771;BME280;28426;42.872;25.314;2023-03-03T13:10:40;96892.47;;;3.37;98.21
42771;BME280;28426;42.872;25.314;2023-03-03T13:13:19;96888.19;;;3.26;97.10
42771;BME280;28426;42.872;25.314;2023-03-03T13:15:57;96894.72;;;3.32;100.00
42771;BME280;28426;42.872;25.314;2023-03-03T13:18:47;96893.16;;;3.39;100.00
42771;BME280;28426;42.872;25.314;2023-03-03T13:21:23;96891.78;;;3.35;99.28
42771;BME280;28426;42.872;25.314;2023-03-03T13:24:02;96891.69;;;3.26;97.78
42771;BME280;28426;42.872;25.314;2023-03-03T13:26:42;96886.16;;;3.20;100.00
42771;BME280;28426;42.872;25.314;2023-03-03T13:29:18;96881.53;;;3.32;100.00
42771;BME280;28426;42.872;25.314;2023-03-03T13:31:54;96884.28;;;3.40;100.00
42771;BME280;28426;42.872;25.314;2023-03-03T13:34:38;96884.81;;;3.34;99.41
42771;BME280;28426;42.872;25.314;2023-03-03T13:37:16;96876.66;;;3.27;100.00
42771;BME280;28426;42.872;25.314;2023-03-03T13:40:01;96881.34;;;3.43;100.00
42771;BME280;28426;42.872;25.314;2023-03-03T13:42:39;96883.69;;;3.46;100.00
42771;BME280;28426;42.872;25.314;2023-03-03T13:45:17;96883.16;;;3.43;100.00
42771;BME280;28426;42.872;25.314;2023-03-03T13:47:56;96888.44;;;3.33;98.45